Time;durP1;ratioP1;P1;durP2;ratioP2;P2;SDS_P1;SDS_P2;PMS_P1;PMS_P2;Temp;Humidity;BMP_temperature;BMP_pressure;BME280_temperature;BME280_humidity;BME280_pressure;Samples;Min_cycle;Max_cycle;Signal;HPM_P1;HPM_P2
2022/07/03 00:00:20;;;;;;;1.80;1.13;;;14.00;57.50;;;;;;4992957;28;20225;-45
2022/07/03 00:02:51;;;;;;;1.70;1.27;;;14.00;57.50;;;;;;4992806;28;20210;-44
2022/07/03 00:05:21;;;;;;;1.58;1.30;;;14.00;57.50;;;;;;4993423;28;20208;-44
2022/07/03 00:07:54;;;;;;;1.60;1.20;;;14.00;57.50;;;;;;4993072;28;20213;-44
2022/07/03 00:10:25;;;;;;;2.10;1.50;;;14.00;57.50;;;;;;4992791;28;20217;-44
2022/07/03 00:12:55;;;;;;;1.58;1.30;;;14.10;57.50;;;;;;4991849;28;20225;-46
2022/07/03 00:15:26;;;;;;;2.33;1.23;;;14.10;57.60;;;;;;4992721;28;20566;-45
2022/07/03 00:17:57;;;;;;;1.48;1.35;;;14.10;57.60;;;;;;5009118;28;20201;-46
2022/07/03 00:20:36;;;;;;;1.50;1.40;;;14.10;57.50;;;;;;5011362;28;20231;-45
2022/07/03 00:23:12;;;;;;;1.83;1.50;;;14.10;57.50;;;;;;5011151;28;20205;-44
2022/07/03 00:25:44;;;;;;;1.88;1.60;;;14.20;57.40;;;;;;5011465;28;20196;-46
2022/07/03 00:28:15;;;;;;;2.47;1.40;;;14.20;57.40;;;;;;5011837;28;20208;-44
2022/07/03 00:30:49;;;;;;;1.77;1.50;;;14.20;57.40;;;;;;4997725;28;20228;-45
2022/07/03 00:33:20;;;;;;;1.92;1.35;;;14.20;57.50;;;;;;4991798;28;20612;-45
2022/07/03 00:35:55;;;;;;;2.28;1.70;;;14.30;57.60;;;;;;5008676;28;20201;-44
2022/07/03 00:38:28;;;;;;;3.30;1.67;;;14.30;57.50;;;;;;5011759;28;20222;-47
2022/07/03 00:40:59;;;;;;;1.67;1.42;;;14.30;57.50;;;;;;5011769;28;20223;-45
2022/07/03 00:43:30;;;;;;;1.65;1.40;;;14.30;57.50;;;;;;5011943;28;20279;-44
2022/07/03 00:46:10;;;;;;;2.03;1.40;;;14.40;57.50;;;;;;5012135;28;20201;-46
2022/07/03 00:48:42;;;;;;;2.30;1.75;;;14.40;57.50;;;;;;5011412;28;20205;-44
2022/07/03 00:51:20;;;;;;;1.95;1.58;;;14.40;57.50;;;;;;5011703;28;20212;-45
2022/07/03 00:53:55;;;;;;;2.15;1.33;;;14.40;57.50;;;;;;5011702;28;20228;-45
2022/07/03 00:56:28;;;;;;;1.70;1.60;;;14.40;57.50;;;;;;5011497;28;20197;-45
2022/07/03 00:59:00;;;;;;;2.70;1.60;;;14.40;57.50;;;;;;5011714;28;20200;-44
2022/07/03 01:01:34;;;;;;;2.72;2.00;;;14.40;57.40;;;;;;5011716;28;20216;-45
2022/07/03 01:04:20;;;;;;;1.90;1.70;;;14.40;57.40;;;;;;5011073;28;20201;-44
2022/07/03 01:06:57;;;;;;;1.98;1.60;;;14.50;57.40;;;;;;4996853;28;20287;-45
2022/07/03 01:09:43;;;;;;;1.45;1.35;;;14.50;57.30;;;;;;4991869;28;20205;-45
2022/07/03 01:12:25;;;;;;;2.45;1.60;;;14.50;57.30;;;;;;4991442;28;20229;-44
2022/07/03 01:15:06;;;;;;;2.22;1.65;;;14.50;57.30;;;;;;4998130;28;20193;-45
2022/07/03 01:17:40;;;;;;;2.10;1.63;;;14.60;57.40;;;;;;5011758;28;20201;-46
2022/07/03 01:20:13;;;;;;;3.90;1.70;;;14.60;57.40;;;;;;5011380;28;20755;-43
2022/07/03 01:22:47;;;;;;;2.65;1.60;;;14.60;57.40;;;;;;5011138;28;20228;-43
2022/07/03 01:25:26;;;;;;;1.90;1.70;;;14.60;57.40;;;;;;5010729;28;20193;-43
2022/07/03 01:28:14;;;;;;;2.00;1.65;;;14.60;57.40;;;;;;5011323;28;20203;-43
2022/07/03 01:30:49;;;;;;;1.80;1.65;;;14.70;57.40;;;;;;5011581;28;20594;-43
2022/07/03 01:33:21;;;;;;;2.42;1.92;;;14.70;57.30;;;;;;5010783;28;20231;-44
2022/07/03 01:36:01;;;;;;;2.30;1.83;;;14.70;57.20;;;;;;5011883;28;20847;-43
2022/07/03 01:38:33;;;;;;;1.70;1.50;;;14.70;57.30;;;;;;5010801;28;20232;-43
2022/07/03 01:41:05;;;;;;;1.77;1.48;;;14.80;57.30;;;;;;5011514;28;20220;-43
2022/07/03 01:43:39;;;;;;;2.30;1.67;;;14.80;57.30;;;;;;5011161;28;20208;-42
2022/07/03 01:46:10;;;;;;;1.88;1.58;;;14.80;57.30;;;;;;5008838;28;20202;-42
2022/07/03 01:48:46;;;;;;;4.03;1.70;;;14.80;57.20;;;;;;5001116;28;20194;-42
2022/07/03 01:51:18;;;;;;;2.08;1.83;;;14.90;57.10;;;;;;5006171;28;20688;-42
2022/07/03 01:53:51;;;;;;;1.55;1.45;;;14.90;57.10;;;;;;5010246;28;20671;-43
2022/07/03 01:56:23;;;;;;;1.73;1.48;;;15.00;57.10;;;;;;5010111;28;20192;-44
2022/07/03 01:58:55;;;;;;;1.63;1.50;;;15.00;57.10;;;;;;4998985;28;20204;-43
2022/07/03 02:01:33;;;;;;;3.58;2.13;;;15.00;57.10;;;;;;4990550;28;20209;-45
2022/07/03 02:04:11;;;;;;;3.72;1.95;;;15.10;57.10;;;;;;5007011;28;20207;-44
2022/07/03 02:06:46;;;;;;;2.60;1.98;;;15.10;57.10;;;;;;5005531;28;20192;-44
2022/07/03 02:09:20;;;;;;;4.10;2.00;;;15.10;57.10;;;;;;5010262;28;20200;-43
2022/07/03 02:11:51;;;;;;;3.47;2.10;;;15.20;57.10;;;;;;4991702;28;20231;-43
2022/07/03 02:14:27;;;;;;;3.42;1.95;;;15.20;57.20;;;;;;4990570;28;20569;-43
2022/07/03 02:17:06;;;;;;;3.53;2.10;;;15.20;57.10;;;;;;4999842;28;20224;-43
2022/07/03 02:19:45;;;;;;;4.10;2.20;;;15.20;57.10;;;;;;5010748;28;20239;-44
2022/07/03 02:22:16;;;;;;;3.72;2.13;;;15.30;57.20;;;;;;4993292;28;20228;-43
2022/07/03 02:24:48;;;;;;;4.10;1.63;;;15.30;57.20;;;;;;4995245;28;20209;-44
2022/07/03 02:27:22;;;;;;;8.02;2.78;;;15.30;57.20;;;;;;4995238;28;20194;-45
2022/07/03 02:30:04;;;;;;;4.47;2.28;;;15.40;57.20;;;;;;4994955;28;20205;-46
2022/07/03 02:32:39;;;;;;;5.70;2.50;;;15.40;57.10;;;;;;4994251;28;20537;-46
2022/07/03 02:35:12;;;;;;;5.50;2.35;;;15.40;57.00;;;;;;4997808;28;20207;-44
2022/07/03 02:37:47;;;;;;;2.90;2.10;;;15.50;57.00;;;;;;4997925;28;20193;-45
2022/07/03 02:40:28;;;;;;;3.63;2.03;;;15.50;57.00;;;;;;4998859;28;20296;-44
2022/07/03 02:43:17;;;;;;;3.22;2.03;;;15.60;57.00;;;;;;5013176;28;20192;-44
2022/07/03 02:45:59;;;;;;;4.38;1.80;;;15.60;57.00;;;;;;5012847;28;20185;-44
2022/07/03 02:48:36;;;;;;;6.15;2.42;;;15.70;57.00;;;;;;4993752;28;20204;-44
2022/07/03 02:51:16;;;;;;;4.55;2.13;;;15.70;57.00;;;;;;4993890;28;20220;-44
2022/07/03 02:53:52;;;;;;;3.30;1.90;;;15.70;57.00;;;;;;4994172;28;20252;-44
2022/07/03 02:56:33;;;;;;;5.15;1.90;;;15.80;57.00;;;;;;4994067;28;20202;-45
2022/07/03 02:59:15;;;;;;;3.78;2.00;;;15.80;57.10;;;;;;5007201;28;20196;-44
2022/07/03 03:02:09;;;;;;;4.35;2.20;;;15.80;57.10;;;;;;4997888;28;20760;-44
2022/07/03 03:04:46;;;;;;;3.03;2.10;;;15.90;57.10;;;;;;4994171;28;20205;-45
2022/07/03 03:07:19;;;;;;;4.72;2.85;;;15.90;57.10;;;;;;4992821;28;20252;-44
2022/07/03 03:09:51;;;;;;;3.50;2.47;;;15.90;57.10;;;;;;4993993;28;20205;-44
2022/07/03 03:12:31;;;;;;;5.53;3.30;;;15.90;57.00;;;;;;4994268;28;20249;-44
2022/07/03 03:15:06;;;;;;;5.00;2.85;;;16.00;57.10;;;;;;4994013;28;20568;-44
2022/07/03 03:17:52;;;;;;;5.15;2.95;;;16.00;57.10;;;;;;5007564;28;20211;-45
2022/07/03 03:20:29;;;;;;;4.50;2.70;;;16.00;57.10;;;;;;5009877;28;20216;-45
2022/07/03 03:23:14;;;;;;;4.15;2.83;;;16.10;57.00;;;;;;4994018;28;20224;-44
2022/07/03 03:25:45;;;;;;;5.63;3.25;;;16.10;57.00;;;;;;4999815;28;20538;-44
2022/07/03 03:28:16;;;;;;;6.03;3.47;;;16.20;57.00;;;;;;4993984;28;20198;-44
2022/07/03 03:30:47;;;;;;;6.13;3.88;;;16.20;57.00;;;;;;4993448;28;20209;-45
2022/07/03 03:33:21;;;;;;;5.53;3.40;;;16.20;56.90;;;;;;4992165;28;20704;-44
2022/07/03 03:35:52;;;;;;;10.45;5.22;;;16.30;56.90;;;;;;4999255;28;20204;-45
2022/07/03 03:38:23;;;;;;;7.45;4.20;;;16.30;56.90;;;;;;5012645;28;20203;-44
2022/07/03 03:40:53;;;;;;;6.05;4.25;;;16.30;56.80;;;;;;5006726;28;20220;-44
2022/07/03 03:43:24;;;;;;;7.13;5.00;;;16.30;56.90;;;;;;4994565;28;20684;-44
2022/07/03 03:45:55;;;;;;;7.30;4.00;;;16.40;56.90;;;;;;4999104;28;20185;-44
2022/07/03 03:48:28;;;;;;;5.97;4.68;;;16.40;56.90;;;;;;5012918;28;20569;-44
2022/07/03 03:50:59;;;;;;;6.45;4.20;;;16.40;56.90;;;;;;5006439;28;20214;-44
2022/07/03 03:53:31;;;;;;;5.50;4.15;;;16.40;56.90;;;;;;4993030;28;20232;-44
2022/07/03 03:56:06;;;;;;;6.28;4.28;;;16.50;56.90;;;;;;4992912;28;20197;-45
2022/07/03 03:58:38;;;;;;;7.60;4.57;;;16.50;56.90;;;;;;4992706;28;20216;-44
2022/07/03 04:01:10;;;;;;;5.70;4.25;;;16.50;56.80;;;;;;4994233;28;20214;-44
2022/07/03 04:03:44;;;;;;;6.38;4.00;;;16.60;56.90;;;;;;5012625;28;20200;-45
2022/07/03 04:06:14;;;;;;;6.80;4.50;;;16.60;56.90;;;;;;5011723;28;20675;-45
2022/07/03 04:08:45;;;;;;;6.80;4.47;;;16.60;56.90;;;;;;5010177;28;20193;-44
2022/07/03 04:11:16;;;;;;;6.07;3.85;;;16.60;56.80;;;;;;5005181;28;20220;-44
2022/07/03 04:13:47;;;;;;;6.68;4.38;;;16.70;56.90;;;;;;4992477;28;20225;-44
2022/07/03 04:16:18;;;;;;;5.30;3.72;;;16.70;56.90;;;;;;4995312;28;20201;-44
2022/07/03 04:18:50;;;;;;;6.88;3.85;;;16.70;56.80;;;;;;5012223;28;20208;-45
2022/07/03 04:21:21;;;;;;;6.53;3.97;;;16.80;56.80;;;;;;5011127;28;20217;-46
2022/07/03 04:23:51;;;;;;;6.18;4.00;;;16.80;56.80;;;;;;5012258;28;20208;-44
2022/07/03 04:26:22;;;;;;;6.97;4.20;;;16.80;56.80;;;;;;5011742;28;20535;-45
2022/07/03 04:28:53;;;;;;;7.07;4.20;;;16.80;56.80;;;;;;5011817;28;20200;-45
2022/07/03 04:31:23;;;;;;;6.47;4.30;;;16.80;56.80;;;;;;5011511;28;20216;-44
2022/07/03 04:33:56;;;;;;;6.03;3.72;;;16.80;56.80;;;;;;5011779;28;20225;-44
2022/07/03 04:36:27;;;;;;;5.03;3.75;;;16.80;56.80;;;;;;5011459;28;20218;-44
2022/07/03 04:38:57;;;;;;;5.45;4.05;;;16.90;56.80;;;;;;5011999;28;20213;-44
2022/07/03 04:41:28;;;;;;;5.05;3.63;;;16.90;56.80;;;;;;5010714;28;20235;-45
2022/07/03 04:43:59;;;;;;;4.68;3.70;;;16.90;56.80;;;;;;4995116;28;20708;-44
2022/07/03 04:46:29;;;;;;;4.97;3.72;;;16.90;56.80;;;;;;5011696;28;20197;-44
2022/07/03 04:49:02;;;;;;;6.47;3.92;;;16.90;56.80;;;;;;5003351;28;20211;-44
2022/07/03 04:51:33;;;;;;;5.50;3.60;;;16.90;56.80;;;;;;5011432;28;20548;-46
2022/07/03 04:54:03;;;;;;;5.53;4.03;;;16.90;56.80;;;;;;5011121;28;20232;-45
2022/07/03 04:56:34;;;;;;;5.68;4.03;;;16.90;56.70;;;;;;5011976;28;20193;-44
2022/07/03 04:59:05;;;;;;;6.20;3.72;;;16.90;57.30;;;;;;5011955;28;20196;-45
2022/07/03 05:01:35;;;;;;;5.32;3.80;;;16.90;56.70;;;;;;5010643;28;20227;-45
2022/07/03 05:04:08;;;;;;;5.72;3.92;;;16.90;56.60;;;;;;5011455;28;20212;-45
2022/07/03 05:06:39;;;;;;;5.38;3.92;;;16.90;56.60;;;;;;4998543;28;20189;-45
2022/07/03 05:09:10;;;;;;;5.03;3.55;;;16.90;56.70;;;;;;4991899;28;20202;-44
2022/07/03 05:11:40;;;;;;;4.97;3.88;;;16.90;56.70;;;;;;4991582;28;20240;-45
2022/07/03 05:14:11;;;;;;;4.78;3.60;;;16.90;56.70;;;;;;4991564;28;20224;-45
2022/07/03 05:16:42;;;;;;;4.97;3.75;;;16.80;56.60;;;;;;4997975;28;20192;-45
2022/07/03 05:19:15;;;;;;;5.18;3.65;;;16.90;56.70;;;;;;5010340;28;20205;-44
2022/07/03 05:21:46;;;;;;;5.45;3.53;;;16.90;56.70;;;;;;5010444;28;20691;-45
2022/07/03 05:24:17;;;;;;;4.82;3.53;;;16.80;56.60;;;;;;5011845;28;20224;-45
2022/07/03 05:26:47;;;;;;;6.40;3.72;;;16.80;57.20;;;;;;5010565;28;20201;-44
2022/07/03 05:29:18;;;;;;;4.82;3.65;;;16.80;56.70;;;;;;5011264;28;20200;-44
2022/07/03 05:31:49;;;;;;;4.95;3.63;;;16.80;56.60;;;;;;5003462;28;20571;-46
2022/07/03 05:34:21;;;;;;;4.25;3.17;;;16.80;56.60;;;;;;4990901;28;20237;-44
2022/07/03 05:36:52;;;;;;;5.65;3.53;;;16.80;56.70;;;;;;4993948;28;20198;-44
2022/07/03 05:39:35;;;;;;;5.45;3.40;;;16.80;56.70;;;;;;4991481;28;20201;-45
2022/07/03 05:42:06;;;;;;;4.13;3.03;;;16.80;56.70;;;;;;5000201;28;20216;-44
2022/07/03 05:44:37;;;;;;;3.83;2.97;;;16.80;56.60;;;;;;5010727;28;20203;-45
2022/07/03 05:47:07;;;;;;;4.15;3.15;;;16.80;56.60;;;;;;5010880;28;20197;-44
2022/07/03 05:49:40;;;;;;;4.10;3.05;;;16.80;56.60;;;;;;5010336;28;20588;-44
2022/07/03 05:52:11;;;;;;;3.75;2.97;;;16.70;56.60;;;;;;5010894;28;20228;-45
2022/07/03 05:54:42;;;;;;;4.05;3.30;;;16.70;56.60;;;;;;5010799;28;20230;-46
2022/07/03 05:57:13;;;;;;;4.53;3.22;;;16.70;56.70;;;;;;5014566;28;20192;-44
2022/07/03 05:59:43;;;;;;;4.55;3.55;;;16.70;56.70;;;;;;5015153;28;20220;-45
2022/07/03 06:02:14;;;;;;;3.90;2.95;;;16.70;56.60;;;;;;5010908;28;20217;-45
2022/07/03 06:04:47;;;;;;;3.78;2.92;;;16.70;56.60;;;;;;5015162;28;20203;-45
2022/07/03 06:07:17;;;;;;;3.45;2.60;;;16.60;56.60;;;;;;4996852;28;20197;-45
2022/07/03 06:09:48;;;;;;;3.85;2.58;;;16.60;56.60;;;;;;4994815;28;20201;-45
2022/07/03 06:12:19;;;;;;;4.07;3.20;;;16.60;56.60;;;;;;4994372;28;20240;-45
2022/07/03 06:14:50;;;;;;;3.97;2.50;;;16.60;56.60;;;;;;4995257;28;20228;-44
2022/07/03 06:17:20;;;;;;;3.53;3.05;;;16.60;56.50;;;;;;5005720;28;20652;-44
2022/07/03 06:19:53;;;;;;;4.05;2.72;;;16.60;56.60;;;;;;5014188;28;20197;-45
2022/07/03 06:22:24;;;;;;;3.78;2.63;;;16.60;56.60;;;;;;5014066;28;20596;-46
2022/07/03 06:24:54;;;;;;;3.33;2.67;;;16.60;56.50;;;;;;5014114;28;20561;-45
2022/07/03 06:27:25;;;;;;;4.38;2.97;;;16.50;57.10;;;;;;5014106;28;20196;-44
2022/07/03 06:29:56;;;;;;;4.05;3.13;;;16.60;56.50;;;;;;5014469;28;20196;-45
2022/07/03 06:32:26;;;;;;;3.17;2.47;;;16.50;56.50;;;;;;5014844;28;20204;-44
2022/07/03 06:35:04;;;;;;;2.85;2.55;;;16.50;56.40;;;;;;5014636;28;20224;-44
2022/07/03 06:37:35;;;;;;;4.80;2.80;;;16.50;56.50;;;;;;5014708;28;20208;-44
2022/07/03 06:40:06;;;;;;;3.65;2.70;;;16.50;56.50;;;;;;5014692;28;20569;-46
2022/07/03 06:42:37;;;;;;;4.15;2.63;;;16.50;56.40;;;;;;5014041;28;20197;-45
2022/07/03 06:45:08;;;;;;;3.25;2.53;;;16.50;56.40;;;;;;5014618;28;20209;-43
2022/07/03 06:47:41;;;;;;;2.92;2.50;;;16.40;56.50;;;;;;5014792;28;20220;-45
2022/07/03 06:50:14;;;;;;;3.25;2.78;;;16.40;56.40;;;;;;5014630;28;20220;-44
2022/07/03 06:52:44;;;;;;;3.45;2.60;;;16.40;56.40;;;;;;5013954;28;20193;-47
2022/07/03 06:55:15;;;;;;;3.40;2.65;;;16.40;56.40;;;;;;5013525;28;20595;-44
2022/07/03 06:57:46;;;;;;;3.95;2.47;;;16.40;56.50;;;;;;5013543;28;20193;-44
2022/07/03 07:00:17;;;;;;;3.58;2.42;;;16.40;56.40;;;;;;5014229;28;20213;-44
2022/07/03 07:02:48;;;;;;;2.85;2.53;;;16.40;56.40;;;;;;5013893;28;20204;-44
2022/07/03 07:05:21;;;;;;;3.78;2.72;;;16.30;57.00;;;;;;5013944;28;20201;-45
2022/07/03 07:07:51;;;;;;;3.42;2.38;;;16.30;56.40;;;;;;5013226;28;20196;-45
2022/07/03 07:10:22;;;;;;;2.50;2.30;;;16.30;56.40;;;;;;5013932;28;20220;-43
2022/07/03 07:12:53;;;;;;;3.22;2.38;;;16.30;56.40;;;;;;5013417;28;20193;-45
2022/07/03 07:15:23;;;;;;;2.72;2.25;;;16.30;56.30;;;;;;5014112;28;20708;-44
2022/07/03 07:17:56;;;;;;;2.47;2.10;;;16.30;56.30;;;;;;5013956;28;20656;-45
2022/07/03 07:20:28;;;;;;;3.33;2.20;;;16.30;56.30;;;;;;5013638;28;20216;-47
2022/07/03 07:22:59;;;;;;;2.60;2.10;;;16.30;56.30;;;;;;5013937;28;20211;-45
2022/07/03 07:25:30;;;;;;;2.75;2.22;;;16.30;56.30;;;;;;5013902;28;20219;-45
2022/07/03 07:28:00;;;;;;;3.10;2.30;;;16.20;56.30;;;;;;5013086;28;20204;-44
2022/07/03 07:30:31;;;;;;;2.95;2.28;;;16.20;56.40;;;;;;5008709;28;20594;-43
2022/07/03 07:33:02;;;;;;;2.50;2.05;;;16.20;56.40;;;;;;4993684;28;20204;-45
2022/07/03 07:35:34;;;;;;;2.92;1.98;;;16.20;56.40;;;;;;4994215;28;20225;-45
2022/07/03 07:38:05;;;;;;;2.42;2.10;;;16.10;56.30;;;;;;4993763;28;20208;-46
2022/07/03 07:40:36;;;;;;;2.90;2.33;;;16.10;56.40;;;;;;4993677;28;20214;-45
2022/07/03 07:43:06;;;;;;;2.58;2.28;;;16.10;56.30;;;;;;4999883;28;20209;-45
2022/07/03 07:45:38;;;;;;;2.13;1.92;;;16.10;56.40;;;;;;5013359;28;20255;-46
2022/07/03 07:48:09;;;;;;;2.80;2.08;;;16.10;56.30;;;;;;5013460;28;20197;-45
2022/07/03 07:50:41;;;;;;;2.45;1.90;;;16.10;56.30;;;;;;5004774;28;20205;-45
2022/07/03 07:53:12;;;;;;;3.25;2.13;;;16.10;56.30;;;;;;4993832;28;20205;-47
2022/07/03 07:55:43;;;;;;;1.92;1.70;;;16.10;56.30;;;;;;4993719;28;20225;-45
2022/07/03 07:58:13;;;;;;;3.13;2.15;;;16.10;56.30;;;;;;4999401;28;20205;-45
2022/07/03 08:05:35;;;;;;;3.17;2.20;;;16.00;56.30;;;;;;5013006;28;20217;-45
2022/07/03 08:06:24;;;;;;;2.85;2.10;;;16.00;56.20;;;;;;5013229;28;20203;-44
2022/07/03 08:08:54;;;;;;;2.88;2.10;;;16.00;56.20;;;;;;5012964;28;20319;-45
2022/07/03 08:11:25;;;;;;;2.13;1.90;;;16.00;56.20;;;;;;5012291;28;20689;-45
2022/07/03 08:13:56;;;;;;;2.63;2.10;;;16.00;56.30;;;;;;5011837;28;20197;-45
2022/07/03 08:16:26;;;;;;;2.75;2.25;;;15.90;56.20;;;;;;5012919;28;20205;-44
2022/07/03 08:18:57;;;;;;;2.10;1.80;;;15.90;56.30;;;;;;5012611;28;20201;-45
2022/07/03 08:21:30;;;;;;;2.05;1.73;;;15.90;56.30;;;;;;5012488;28;20213;-46
2022/07/03 08:24:00;;;;;;;2.55;1.80;;;15.90;56.30;;;;;;5012792;28;20212;-45
2022/07/03 08:26:31;;;;;;;3.47;1.95;;;15.90;56.30;;;;;;5012638;28;20197;-45
2022/07/03 08:29:02;;;;;;;2.10;1.90;;;15.90;56.30;;;;;;5012000;28;20197;-45
2022/07/03 08:31:32;;;;;;;2.05;1.58;;;15.80;56.30;;;;;;5012782;28;20217;-46
2022/07/03 08:34:03;;;;;;;2.22;1.75;;;15.80;56.30;;;;;;5012659;28;20564;-44
2022/07/03 08:36:36;;;;;;;2.15;1.80;;;15.80;56.30;;;;;;5012940;28;20215;-45
2022/07/03 08:39:06;;;;;;;2.03;1.80;;;15.80;56.30;;;;;;5012665;28;20205;-46
2022/07/03 08:41:39;;;;;;;1.95;1.75;;;15.80;56.30;;;;;;5012553;28;20217;-45
2022/07/03 08:44:13;;;;;;;2.00;1.73;;;15.80;56.30;;;;;;5011867;28;20598;-46
2022/07/03 08:46:44;;;;;;;1.85;1.48;;;15.80;56.30;;;;;;5003837;28;20421;-45
2022/07/03 08:49:16;;;;;;;1.83;1.40;;;15.80;56.40;;;;;;5010687;28;20649;-45
2022/07/03 08:51:49;;;;;;;2.53;1.40;;;15.80;56.90;;;;;;5002419;28;20213;-44
2022/07/03 08:54:19;;;;;;;2.28;1.90;;;15.90;57.00;;;;;;5010868;28;20193;-44
2022/07/03 08:56:51;;;;;;;2.50;1.70;;;15.90;56.90;;;;;;5010642;28;20197;-45
2022/07/03 08:59:23;;;;;;;1.90;1.70;;;15.80;56.80;;;;;;5011444;28;20227;-45
2022/07/03 09:01:55;;;;;;;2.53;1.60;;;15.80;56.80;;;;;;5011744;28;20213;-45
2022/07/03 09:04:26;;;;;;;2.10;1.65;;;15.80;56.70;;;;;;5000316;28;20189;-44
2022/07/03 09:07:00;;;;;;;2.17;1.60;;;15.80;56.70;;;;;;4992157;28;20224;-45
2022/07/03 09:09:31;;;;;;;2.53;1.95;;;15.80;56.70;;;;;;4991710;28;20204;-45
2022/07/03 09:12:02;;;;;;;2.50;1.70;;;15.70;56.70;;;;;;4991466;28;20240;-45
2022/07/03 09:14:33;;;;;;;2.95;1.90;;;15.70;56.70;;;;;;4992126;28;20225;-45
2022/07/03 09:17:04;;;;;;;1.60;1.50;;;15.70;56.70;;;;;;5008914;28;20196;-44
2022/07/03 09:19:45;;;;;;;2.28;1.80;;;15.70;56.60;;;;;;5011722;28;20644;-43
2022/07/03 09:22:24;;;;;;;2.22;1.58;;;15.70;56.60;;;;;;5010196;28;20200;-45
2022/07/03 09:24:56;;;;;;;2.03;1.55;;;15.70;56.60;;;;;;5007708;28;20196;-44
2022/07/03 09:27:28;;;;;;;3.25;2.08;;;15.70;56.60;;;;;;4990894;28;20715;-45
2022/07/03 09:30:02;;;;;;;2.10;1.77;;;15.70;56.50;;;;;;4998143;28;20620;-46
2022/07/03 09:32:44;;;;;;;2.33;1.80;;;15.70;56.60;;;;;;4990956;28;20203;-44
2022/07/03 09:35:20;;;;;;;1.88;1.52;;;15.70;56.60;;;;;;4990714;28;20774;-44
2022/07/03 09:37:57;;;;;;;2.08;1.73;;;15.60;56.50;;;;;;5002986;28;20204;-44
2022/07/03 09:40:29;;;;;;;1.95;1.77;;;15.70;56.60;;;;;;5004827;28;20213;-43
2022/07/03 09:43:07;;;;;;;2.05;1.73;;;15.60;56.50;;;;;;4991560;28;20198;-44
2022/07/03 09:45:54;;;;;;;2.30;1.92;;;15.60;56.50;;;;;;4990823;28;20200;-45
2022/07/03 09:48:31;;;;;;;2.10;1.90;;;15.60;56.60;;;;;;4991623;28;20592;-45
2022/07/03 09:51:23;;;;;;;1.85;1.63;;;15.60;57.10;;;;;;4996913;28;20213;-44
2022/07/03 09:53:57;;;;;;;2.63;2.10;;;15.60;56.50;;;;;;5009977;28;20280;-45
2022/07/03 09:56:29;;;;;;;2.13;1.70;;;15.50;56.50;;;;;;4998263;28;20695;-45
2022/07/03 09:59:09;;;;;;;1.90;1.65;;;15.50;56.60;;;;;;4991192;28;20217;-44
2022/07/03 10:01:41;;;;;;;1.70;1.60;;;15.60;56.60;;;;;;4990931;28;20636;-45
2022/07/03 10:04:22;;;;;;;1.83;1.65;;;15.50;56.50;;;;;;5003312;28;20213;-46
2022/07/03 10:06:57;;;;;;;2.88;1.80;;;15.50;56.50;;;;;;4997116;28;20209;-44
2022/07/03 10:09:31;;;;;;;2.13;1.92;;;15.50;56.50;;;;;;4991127;28;20193;-44
2022/07/03 10:12:03;;;;;;;2.38;1.95;;;15.50;56.50;;;;;;4990543;28;20225;-44
2022/07/03 10:14:35;;;;;;;2.20;1.98;;;15.50;56.50;;;;;;4991788;28;20201;-44
2022/07/03 10:17:06;;;;;;;2.63;2.20;;;15.50;56.50;;;;;;5004954;28;20201;-44
2022/07/03 10:19:43;;;;;;;2.83;2.05;;;15.50;56.50;;;;;;5009133;28;20200;-46
2022/07/03 10:22:21;;;;;;;3.50;1.90;;;15.50;56.40;;;;;;4990345;28;20578;-45
2022/07/03 10:24:55;;;;;;;2.63;2.05;;;15.50;56.50;;;;;;4990920;28;20203;-44
2022/07/03 10:27:26;;;;;;;2.90;1.83;;;15.50;56.50;;;;;;4990689;28;20198;-45
2022/07/03 10:29:59;;;;;;;2.60;2.00;;;15.50;56.50;;;;;;4990201;28;20198;-44
2022/07/03 10:32:30;;;;;;;2.22;2.00;;;15.50;56.50;;;;;;4990649;28;20202;-45
2022/07/03 10:35:02;;;;;;;2.22;1.80;;;15.50;56.70;;;;;;4989437;28;20700;-44
2022/07/03 10:37:43;;;;;;;2.85;2.20;;;15.50;56.50;;;;;;5007706;28;20201;-45
2022/07/03 10:46:16;;;;;;;3.45;2.15;;;15.40;56.50;;;;;;4996601;28;20197;-45
2022/07/03 10:49:10;;;;;;;2.45;1.90;;;15.40;56.50;;;;;;5012746;28;20251;-45
2022/07/03 10:51:58;;;;;;;2.92;1.88;;;15.40;56.50;;;;;;4994200;28;20217;-44
2022/07/03 10:54:30;;;;;;;3.30;2.17;;;15.40;56.50;;;;;;5013096;28;20204;-45
2022/07/03 10:57:19;;;;;;;3.38;2.00;;;15.40;56.50;;;;;;5012246;28;20228;-45
2022/07/03 11:00:10;;;;;;;3.33;2.33;;;15.40;56.50;;;;;;4993367;28;20275;-45
2022/07/03 11:02:42;;;;;;;2.85;1.77;;;15.40;56.50;;;;;;4993398;28;20855;-45
2022/07/03 11:05:24;;;;;;;2.80;2.10;;;15.40;57.00;;;;;;4992958;28;20202;-44
2022/07/03 11:08:14;;;;;;;3.20;1.98;;;15.40;56.50;;;;;;4992888;28;20490;-44
2022/07/03 11:11:54;;;;;;;3.42;2.10;;;15.40;56.50;;;;;;4993017;28;20591;-44
2022/07/03 11:13:38;;;;;;;4.65;2.17;;;15.40;56.40;;;;;;5011120;28;20203;-45
2022/07/03 11:16:25;;;;;;;4.32;2.10;;;15.40;56.40;;;;;;5012494;28;20225;-44
2022/07/03 11:19:01;;;;;;;3.75;2.42;;;15.30;56.40;;;;;;5012260;28;20215;-44
2022/07/03 11:21:39;;;;;;;3.40;1.83;;;15.40;56.50;;;;;;5012028;28;20221;-44
2022/07/03 11:24:38;;;;;;;2.70;1.92;;;15.40;56.50;;;;;;5009275;28;20184;-44
2022/07/03 11:27:22;;;;;;;2.95;2.13;;;15.30;56.50;;;;;;5011989;28;20692;-44
2022/07/03 11:30:03;;;;;;;4.15;2.03;;;15.30;56.50;;;;;;5011962;28;20587;-45
2022/07/03 11:32:57;;;;;;;3.25;2.15;;;15.30;56.50;;;;;;5011830;28;20228;-45
2022/07/03 11:35:53;;;;;;;3.90;2.30;;;15.30;56.50;;;;;;5012282;28;20228;-44
2022/07/03 11:38:31;;;;;;;2.95;2.00;;;15.30;56.50;;;;;;5011578;28;20802;-44
2022/07/03 11:41:03;;;;;;;2.47;2.00;;;15.30;56.50;;;;;;5011750;28;20220;-44
2022/07/03 11:43:34;;;;;;;6.03;2.55;;;15.30;56.50;;;;;;5011532;28;20204;-44
2022/07/03 11:46:07;;;;;;;3.45;2.50;;;15.30;56.40;;;;;;5011804;28;20232;-44
2022/07/03 11:48:38;;;;;;;4.50;2.58;;;15.30;56.40;;;;;;5011670;28;20197;-44
2022/07/03 11:51:08;;;;;;;3.75;2.67;;;15.30;56.40;;;;;;5011429;28;20610;-45
2022/07/03 11:53:40;;;;;;;5.05;2.75;;;15.30;56.40;;;;;;5011391;28;20223;-44
2022/07/03 11:56:12;;;;;;;6.03;2.60;;;15.30;56.50;;;;;;5011719;28;20225;-44
2022/07/03 11:58:46;;;;;;;3.67;2.55;;;15.30;56.50;;;;;;5009980;28;20204;-43
2022/07/03 12:04:17;;;;;;;5.30;3.17;;;15.30;56.50;;;;;;5107937;27;20524;-45
2022/07/03 12:06:49;;;;;;;4.75;3.10;;;15.20;56.40;;;;;;5107676;28;20219;-43
2022/07/03 12:09:22;;;;;;;5.93;2.97;;;15.20;56.40;;;;;;5107981;28;20250;-46
2022/07/03 12:12:11;;;;;;;4.97;3.10;;;15.20;56.40;;;;;;5107179;28;20217;-46
2022/07/03 12:14:43;;;;;;;3.72;3.00;;;15.20;56.40;;;;;;5107928;28;20201;-43
2022/07/03 12:17:15;;;;;;;4.78;3.17;;;15.20;56.40;;;;;;5107650;28;20672;-43
2022/07/03 12:19:53;;;;;;;4.95;3.22;;;15.20;56.40;;;;;;5107691;28;20200;-43
2022/07/03 12:22:28;;;;;;;4.65;3.42;;;15.20;56.40;;;;;;5107413;28;20213;-44
2022/07/03 12:25:01;;;;;;;4.75;2.85;;;15.10;56.30;;;;;;5105491;28;20251;-44
2022/07/03 12:27:32;;;;;;;5.85;3.83;;;15.20;56.30;;;;;;5092362;28;20226;-44
2022/07/03 12:30:03;;;;;;;5.20;3.50;;;15.20;56.30;;;;;;5106757;28;20201;-45
2022/07/03 12:32:34;;;;;;;5.65;3.83;;;15.20;56.30;;;;;;5106838;28;20212;-43
2022/07/03 12:35:08;;;;;;;5.07;3.08;;;15.20;56.30;;;;;;5106963;28;20198;-44
2022/07/03 12:37:40;;;;;;;5.15;3.55;;;15.20;56.30;;;;;;5107450;28;20194;-43
2022/07/03 12:40:13;;;;;;;6.90;3.55;;;15.20;56.30;;;;;;5106802;28;20458;-43
2022/07/03 12:42:48;;;;;;;6.10;3.50;;;15.10;56.20;;;;;;5099840;28;20214;-44
2022/07/03 12:45:19;;;;;;;4.25;3.08;;;15.10;56.20;;;;;;5086765;28;20198;-45
2022/07/03 12:48:00;;;;;;;6.03;3.45;;;15.10;56.20;;;;;;5102411;28;20198;-44
2022/07/03 12:50:47;;;;;;;5.40;3.40;;;15.10;56.30;;;;;;5106973;28;20892;-43
2022/07/03 12:53:31;;;;;;;6.85;3.58;;;15.10;56.30;;;;;;5107080;28;20696;-44
2022/07/03 12:56:04;;;;;;;6.03;3.38;;;15.10;56.30;;;;;;5106678;28;20205;-43
2022/07/03 13:01:30;;;;;;;6.15;3.60;;;15.00;56.30;;;;;;5106636;28;20217;-43
2022/07/03 13:04:01;;;;;;;4.57;2.88;;;15.00;56.30;;;;;;5106264;28;20228;-44
2022/07/03 13:06:34;;;;;;;5.35;3.05;;;15.00;56.30;;;;;;5106259;28;20205;-45
2022/07/03 13:09:06;;;;;;;4.60;2.97;;;15.00;56.20;;;;;;5106552;28;20194;-44
2022/07/03 13:11:38;;;;;;;5.13;3.15;;;15.00;56.20;;;;;;5106441;28;20217;-44
2022/07/03 13:14:11;;;;;;;4.95;3.03;;;15.00;56.20;;;;;;5100070;28;20197;-44
2022/07/03 13:16:46;;;;;;;6.78;3.63;;;15.00;56.20;;;;;;5093034;28;20202;-44
2022/07/03 13:19:17;;;;;;;5.90;3.22;;;15.00;56.20;;;;;;5093072;28;20205;-44
2022/07/03 13:21:50;;;;;;;4.68;3.40;;;15.00;56.20;;;;;;5090827;28;20218;-45
2022/07/03 13:24:22;;;;;;;5.53;3.20;;;15.00;56.20;;;;;;5072069;28;20230;-44
2022/07/03 13:26:53;;;;;;;6.40;3.50;;;14.90;56.10;;;;;;5072341;28;20272;-44
2022/07/03 13:29:25;;;;;;;4.53;2.85;;;14.90;56.10;;;;;;5071853;28;20201;-44
2022/07/03 13:31:56;;;;;;;5.97;2.97;;;14.90;56.20;;;;;;5072230;28;20211;-45
2022/07/03 13:34:27;;;;;;;5.78;3.30;;;14.90;56.20;;;;;;5071776;28;20558;-45
2022/07/03 13:37:00;;;;;;;5.57;3.15;;;14.90;56.20;;;;;;5071948;28;20194;-45